createdAt,value
2022-07-29T00:01:45.885Z,36.27
2022-07-29T00:04:15.654Z,36.14
2022-07-29T00:06:45.128Z,35.31
2022-07-29T00:09:14.881Z,35.68
2022-07-29T00:11:44.103Z,35.40
2022-07-29T00:14:13.475Z,35.63
2022-07-29T00:16:43.176Z,35.59
2022-07-29T00:19:12.437Z,35.66
2022-07-29T00:21:42.408Z,35.77
2022-07-29T00:24:11.931Z,36.06
2022-07-29T00:26:43.708Z,35.99
2022-07-29T00:32:02.572Z,35.31
2022-07-29T00:34:50.500Z,35.51
2022-07-29T00:37:20.078Z,35.68
2022-07-29T00:39:50.507Z,35.53
2022-07-29T00:42:20.114Z,34.99
2022-07-29T00:44:49.559Z,35.91
2022-07-29T00:47:18.704Z,36.36
2022-07-29T00:49:48.086Z,36.15
2022-07-29T00:52:21.388Z,36.09
2022-07-29T00:54:51.665Z,36.24
2022-07-29T00:57:21.142Z,36.22
2022-07-29T00:59:50.165Z,35.93
2022-07-29T01:02:19.407Z,36.02
2022-07-29T01:04:48.538Z,36.06
2022-07-29T01:07:19.560Z,35.95
2022-07-29T01:09:49.213Z,35.95
2022-07-29T01:12:28.031Z,35.80
2022-07-29T01:14:58.653Z,35.57
2022-07-29T01:17:58.063Z,35.83
2022-07-29T01:20:48.073Z,35.45
2022-07-29T01:23:48.626Z,35.03
2022-07-29T01:26:56.265Z,35.74
2022-07-29T01:29:40.582Z,35.64
2022-07-29T01:32:28.302Z,35.11
2022-07-29T01:35:10.174Z,35.25
2022-07-29T01:40:44.694Z,35.58
2022-07-29T01:43:21.202Z,34.64
2022-07-29T01:46:05.002Z,34.57
2022-07-29T01:48:42.005Z,34.47
2022-07-29T01:51:21.599Z,34.48
2022-07-29T01:54:01.460Z,34.71
2022-07-29T01:56:35.589Z,34.88
2022-07-29T01:59:08.906Z,34.08
2022-07-29T02:01:42.874Z,34.47
2022-07-29T02:04:28.939Z,34.39
2022-07-29T02:07:07.247Z,34.33
2022-07-29T02:09:40.991Z,34.87
2022-07-29T02:12:12.074Z,35.06
2022-07-29T02:14:47.293Z,34.82
2022-07-29T02:17:25.005Z,34.81
2022-07-29T02:19:58.933Z,34.39
2022-07-29T02:22:31.875Z,34.33
2022-07-29T02:25:02.095Z,34.54
2022-07-29T02:27:37.007Z,34.46
2022-07-29T02:30:09.256Z,34.22
2022-07-29T02:32:40.251Z,34.04
2022-07-29T02:35:11.470Z,33.87
2022-07-29T02:37:43.506Z,33.68
2022-07-29T02:40:18.670Z,33.51
2022-07-29T02:42:49.759Z,33.40
2022-07-29T02:45:19.102Z,33.09
2022-07-29T02:47:51.729Z,33.09
2022-07-29T02:50:30.223Z,32.87
2022-07-29T02:53:14.975Z,32.80
2022-07-29T02:55:52.738Z,32.59
2022-07-29T02:58:51.785Z,32.64
2022-07-29T03:01:25.445Z,32.41
2022-07-29T03:03:57.241Z,32.34
2022-07-29T03:06:38.264Z,32.18
2022-07-29T03:09:13.909Z,32.12
2022-07-29T03:11:50.128Z,32.02
2022-07-29T03:14:21.761Z,31.84
2022-07-29T03:16:52.472Z,31.83
2022-07-29T03:19:22.470Z,31.60
2022-07-29T03:21:51.822Z,31.58
2022-07-29T03:24:37.740Z,31.59
2022-07-29T03:27:10.525Z,31.45
2022-07-29T03:29:40.105Z,31.26
2022-07-29T03:32:14.133Z,31.13
2022-07-29T03:34:46.228Z,31.02
2022-07-29T03:37:15.502Z,30.95
2022-07-29T03:39:46.613Z,30.85
2022-07-29T03:42:21.769Z,30.70
2022-07-29T03:44:54.010Z,30.55
2022-07-29T03:47:49.616Z,30.46
2022-07-29T03:50:18.255Z,30.13
2022-07-29T03:52:48.850Z,29.84
2022-07-29T03:55:19.302Z,29.67
2022-07-29T03:57:50.190Z,29.75
2022-07-29T04:00:19.965Z,29.68
2022-07-29T04:02:52.085Z,29.57
2022-07-29T04:05:22.033Z,29.43
2022-07-29T04:07:51.582Z,29.31
2022-07-29T04:10:28.298Z,29.35
2022-07-29T04:13:02.263Z,29.19
2022-07-29T04:15:32.046Z,29.04
2022-07-29T04:18:01.861Z,28.97
2022-07-29T04:20:31.058Z,28.81
2022-07-29T04:23:01.088Z,28.81
2022-07-29T04:25:30.316Z,28.72
2022-07-29T04:28:03.062Z,28.62
2022-07-29T04:30:35.239Z,28.56
2022-07-29T04:33:06.621Z,28.46
2022-07-29T04:35:48.187Z,28.34
2022-07-29T04:38:22.172Z,28.27
2022-07-29T04:40:51.262Z,27.89
2022-07-29T04:43:22.481Z,28.20
2022-07-29T04:45:52.588Z,28.19
2022-07-29T04:48:26.695Z,28.01
2022-07-29T04:50:58.630Z,28.05
2022-07-29T04:53:28.508Z,27.84
2022-07-29T04:55:57.732Z,27.74
2022-07-29T04:58:26.908Z,27.52
2022-07-29T05:00:56.112Z,27.54
2022-07-29T05:03:25.408Z,27.51
2022-07-29T05:05:55.011Z,27.51
2022-07-29T05:08:24.333Z,26.93
2022-07-29T05:10:53.450Z,27.16
2022-07-29T05:13:22.735Z,27.18
2022-07-29T05:15:52.072Z,27.04
2022-07-29T05:18:21.414Z,26.73
2022-07-29T05:20:55.431Z,26.50
2022-07-29T05:23:24.611Z,26.51
2022-07-29T05:25:53.709Z,26.78
2022-07-29T05:28:23.263Z,26.57
2022-07-29T05:30:52.824Z,26.43
2022-07-29T05:33:35.834Z,26.55
2022-07-29T05:36:11.969Z,26.56
2022-07-29T05:38:43.665Z,26.40
2022-07-29T05:41:13.495Z,26.33
2022-07-29T05:43:42.736Z,25.92
2022-07-29T05:46:11.955Z,26.15
2022-07-29T05:48:41.582Z,26.11
2022-07-29T05:51:10.692Z,25.64
2022-07-29T05:53:40.006Z,25.51
2022-07-29T05:56:09.685Z,25.78
2022-07-29T05:58:38.913Z,25.64
2022-07-29T06:01:08.368Z,25.44
2022-07-29T06:03:39.583Z,25.41
2022-07-29T06:06:09.267Z,25.19
2022-07-29T06:08:39.236Z,25.34
2022-07-29T06:11:10.320Z,25.43
2022-07-29T06:13:40.446Z,25.45
2022-07-29T06:16:09.699Z,24.74
2022-07-29T06:18:45.933Z,24.55
2022-07-29T06:21:15.268Z,24.97
2022-07-29T06:23:44.385Z,24.47
2022-07-29T06:26:13.669Z,24.81
2022-07-29T06:28:43.047Z,24.93
2022-07-29T06:31:12.407Z,24.76
2022-07-29T06:33:41.757Z,24.78
2022-07-29T06:36:11.064Z,24.65
2022-07-29T06:38:47.533Z,24.17
2022-07-29T06:41:19.883Z,24.36
2022-07-29T06:43:52.402Z,24.48
2022-07-29T06:46:24.629Z,24.68
2022-07-29T06:48:54.069Z,24.61
2022-07-29T06:51:24.062Z,24.06
2022-07-29T06:53:59.564Z,23.66
2022-07-29T06:56:43.658Z,23.69
2022-07-29T06:59:14.495Z,24.23
2022-07-29T07:01:45.519Z,24.28
2022-07-29T07:04:15.361Z,24.18
2022-07-29T07:06:44.798Z,23.37
2022-07-29T07:09:13.894Z,23.41
2022-07-29T07:11:43.186Z,23.32
2022-07-29T07:14:12.201Z,23.69
2022-07-29T07:16:41.492Z,23.75
2022-07-29T07:19:10.662Z,23.72
2022-07-29T07:21:39.783Z,23.85
2022-07-29T07:24:09.171Z,23.81
2022-07-29T07:26:38.550Z,23.71
2022-07-29T07:29:08.219Z,23.58
2022-07-29T07:31:38.884Z,23.64
2022-07-29T07:34:10.576Z,23.66
2022-07-29T07:36:40.015Z,23.33
2022-07-29T07:39:13.110Z,22.74
2022-07-29T07:41:42.324Z,22.57
2022-07-29T07:44:16.020Z,22.92
2022-07-29T07:46:46.745Z,22.95
2022-07-29T07:49:16.059Z,23.06
2022-07-29T07:51:50.713Z,23.33
2022-07-29T07:54:21.010Z,23.17
2022-07-29T07:56:53.519Z,23.34
2022-07-29T07:59:22.679Z,22.82
2022-07-29T08:01:56.345Z,23.08
2022-07-29T08:04:28.643Z,23.31
2022-07-29T08:06:59.898Z,23.03
2022-07-29T08:09:30.790Z,22.46
2022-07-29T08:12:01.187Z,22.46
2022-07-29T08:14:30.830Z,22.77
2022-07-29T08:17:00.252Z,22.55
2022-07-29T08:19:29.481Z,22.95
2022-07-29T08:21:58.543Z,22.98
2022-07-29T08:24:45.908Z,22.61
2022-07-29T08:27:42.030Z,22.60
2022-07-29T08:30:06.324Z,22.38
2022-07-29T08:33:03.398Z,22.58
2022-07-29T08:35:25.980Z,22.80
2022-07-29T08:37:55.873Z,22.81
2022-07-29T08:40:31.884Z,22.82
2022-07-29T08:43:11.444Z,22.79
2022-07-29T08:45:52.101Z,22.60
2022-07-29T08:48:23.620Z,22.54
2022-07-29T08:50:57.645Z,22.63
2022-07-29T08:53:28.979Z,22.52
2022-07-29T08:55:59.172Z,22.00
2022-07-29T08:58:36.944Z,22.04
2022-07-29T09:01:12.494Z,22.03
2022-07-29T09:03:45.840Z,21.72
2022-07-29T09:06:21.690Z,22.21
2022-07-29T09:08:51.142Z,22.33
2022-07-29T09:11:20.395Z,22.28
2022-07-29T09:13:51.475Z,22.19
2022-07-29T09:16:37.459Z,22.00
2022-07-29T09:19:33.225Z,21.94
2022-07-29T09:22:04.054Z,21.70
2022-07-29T09:24:40.858Z,21.93
2022-07-29T09:27:24.290Z,22.18
2022-07-29T09:30:03.337Z,22.23
2022-07-29T09:32:34.837Z,22.14
2022-07-29T09:35:21.729Z,21.97
2022-07-29T09:37:50.785Z,22.10
2022-07-29T09:40:27.515Z,21.96
2022-07-29T09:42:59.035Z,21.49
2022-07-29T09:45:36.040Z,21.64
2022-07-29T09:48:24.852Z,21.71
2022-07-29T09:50:54.466Z,21.77
2022-07-29T09:53:35.720Z,21.95
2022-07-29T09:56:06.102Z,21.91
2022-07-29T09:58:36.446Z,21.90
2022-07-29T10:01:05.874Z,21.87
2022-07-29T10:03:52.175Z,21.54
2022-07-29T10:06:21.503Z,21.45
2022-07-29T10:08:51.652Z,21.37
2022-07-29T10:11:21.851Z,20.94
2022-07-29T10:13:51.071Z,20.90
2022-07-29T10:16:20.156Z,20.99
2022-07-29T10:18:49.318Z,20.78
2022-07-29T10:21:22.442Z,21.05
2022-07-29T10:24:07.085Z,21.33
2022-07-29T10:26:45.000Z,21.27
2022-07-29T10:29:14.640Z,20.76
2022-07-29T10:32:31.115Z,21.30
2022-07-29T10:35:22.018Z,21.49
2022-07-29T10:38:26.162Z,21.41
2022-07-29T10:41:29.010Z,21.21
2022-07-29T10:44:25.476Z,21.18
2022-07-29T10:46:55.382Z,21.09
2022-07-29T10:49:30.704Z,20.81
2022-07-29T10:52:05.767Z,20.47
2022-07-29T10:54:42.305Z,20.41
2022-07-29T10:57:25.994Z,20.87
2022-07-29T11:00:17.008Z,20.61
2022-07-29T11:02:50.610Z,20.11
2022-07-29T11:05:23.135Z,20.48
2022-07-29T11:08:19.536Z,20.61
2022-07-29T11:10:55.288Z,20.66
2022-07-29T11:13:48.959Z,20.44
2022-07-29T11:16:21.256Z,20.63
2022-07-29T11:19:30.706Z,20.80
2022-07-29T11:22:00.461Z,20.59
2022-07-29T11:24:35.102Z,20.29
2022-07-29T11:27:20.058Z,20.62
2022-07-29T11:29:58.477Z,20.18
2022-07-29T11:32:37.163Z,20.73
2022-07-29T11:35:37.144Z,20.37
2022-07-29T11:38:29.354Z,20.13
2022-07-29T11:41:20.857Z,19.93
2022-07-29T11:43:53.137Z,20.46
2022-07-29T11:46:44.078Z,20.71
2022-07-29T11:52:05.513Z,20.40
2022-07-29T11:54:51.917Z,20.57
2022-07-29T12:00:28.344Z,19.90
2022-07-29T12:02:59.432Z,19.71
2022-07-29T12:05:48.549Z,19.58
2022-07-29T12:07:02.108Z,20.31
2022-07-29T12:08:23.771Z,19.68
2022-07-29T12:10:53.695Z,19.86
2022-07-29T12:13:37.507Z,20.20
2022-07-29T12:16:07.486Z,20.05
2022-07-29T12:18:36.577Z,19.59
2022-07-29T12:21:06.011Z,19.37
2022-07-29T12:23:35.534Z,19.86
2022-07-29T12:26:10.557Z,20.15
2022-07-29T12:28:41.588Z,20.05
2022-07-29T12:31:42.329Z,19.93
2022-07-29T12:34:08.882Z,19.28
2022-07-29T12:36:39.827Z,19.16
2022-07-29T12:39:09.056Z,19.51
2022-07-29T12:41:38.391Z,19.68
2022-07-29T12:44:07.496Z,19.80
2022-07-29T12:46:36.710Z,19.79
2022-07-29T12:49:06.417Z,19.93
2022-07-29T12:51:40.078Z,20.20
2022-07-29T12:54:12.109Z,19.97
2022-07-29T12:56:43.961Z,19.42
2022-07-29T12:59:23.992Z,19.32
2022-07-29T13:01:54.760Z,19.30
2022-07-29T13:04:29.803Z,19.19
2022-07-29T13:07:10.493Z,19.66
2022-07-29T13:09:45.373Z,19.81
2022-07-29T13:12:15.950Z,19.86
2022-07-29T13:14:47.960Z,19.76
2022-07-29T13:17:19.693Z,19.70
2022-07-29T13:19:50.214Z,19.95
2022-07-29T13:22:25.729Z,19.70
2022-07-29T13:25:05.841Z,18.99
2022-07-29T13:27:41.471Z,19.17
2022-07-29T13:30:12.479Z,19.70
2022-07-29T13:32:41.623Z,19.76
2022-07-29T13:35:11.785Z,19.67
2022-07-29T13:37:42.167Z,19.26
2022-07-29T13:40:12.480Z,19.13
2022-07-29T13:42:44.756Z,19.14
2022-07-29T13:45:15.013Z,19.08
2022-07-29T13:47:49.291Z,19.07
2022-07-29T13:50:18.684Z,19.40
2022-07-29T13:52:49.979Z,19.47
2022-07-29T13:55:19.318Z,19.75
2022-07-29T13:57:48.633Z,19.88
2022-07-29T14:00:18.241Z,19.82
2022-07-29T14:02:47.637Z,19.79
2022-07-29T14:05:19.075Z,19.88
2022-07-29T14:07:48.200Z,19.57
2022-07-29T14:10:20.058Z,19.47
2022-07-29T14:12:49.528Z,19.37
2022-07-29T14:15:19.144Z,19.80
2022-07-29T14:17:48.162Z,19.86
2022-07-29T14:20:17.541Z,20.06
2022-07-29T14:22:46.643Z,20.18
2022-07-29T14:25:16.629Z,20.13
2022-07-29T14:27:46.022Z,20.16
2022-07-29T14:30:15.293Z,20.19
2022-07-29T14:32:44.280Z,20.26
2022-07-29T14:35:13.431Z,19.99
2022-07-29T14:37:44.361Z,20.02
2022-07-29T14:40:13.685Z,20.00
2022-07-29T14:42:43.080Z,20.00
2022-07-29T14:45:12.543Z,19.90
2022-07-29T14:47:41.615Z,20.07
2022-07-29T14:50:11.454Z,20.26
2022-07-29T14:52:40.602Z,20.26
2022-07-29T14:55:19.556Z,20.31
2022-07-29T14:57:50.038Z,20.38
2022-07-29T15:00:20.365Z,20.42
2022-07-29T15:03:02.063Z,20.37
2022-07-29T15:05:34.857Z,20.28
2022-07-29T15:08:04.337Z,20.44
2022-07-29T15:10:34.101Z,20.60
2022-07-29T15:13:03.195Z,20.66
2022-07-29T15:15:32.277Z,20.72
2022-07-29T15:18:01.612Z,20.80
2022-07-29T15:20:30.666Z,20.90
2022-07-29T15:22:59.852Z,20.93
2022-07-29T15:25:32.053Z,20.86
2022-07-29T15:28:04.683Z,20.89
2022-07-29T15:30:34.542Z,20.81
2022-07-29T15:33:06.869Z,20.96
2022-07-29T15:35:40.103Z,20.94
2022-07-29T15:38:10.215Z,21.36
2022-07-29T15:40:43.130Z,21.26
2022-07-29T15:43:12.247Z,21.40
2022-07-29T15:46:06.992Z,21.43
2022-07-29T15:48:41.611Z,21.49
2022-07-29T15:51:16.316Z,21.66
2022-07-29T15:53:53.686Z,21.69
2022-07-29T15:56:23.040Z,21.71
2022-07-29T15:59:07.294Z,21.78
2022-07-29T16:01:42.503Z,21.73
2022-07-29T16:04:23.473Z,21.94
2022-07-29T16:07:04.983Z,21.98
2022-07-29T16:09:36.727Z,22.23
2022-07-29T16:12:15.376Z,22.17
2022-07-29T16:14:52.113Z,22.32
2022-07-29T16:17:34.365Z,22.40
2022-07-29T16:20:18.385Z,22.35
2022-07-29T16:22:47.576Z,22.60
2022-07-29T16:25:16.633Z,22.73
2022-07-29T16:27:48.505Z,22.68
2022-07-29T16:30:17.695Z,22.91
2022-07-29T16:32:46.862Z,23.19
2022-07-29T16:36:00.031Z,23.11
2022-07-29T16:38:32.270Z,23.33
2022-07-29T16:41:01.434Z,23.50
2022-07-29T16:43:30.671Z,23.56
2022-07-29T16:45:59.869Z,23.56
2022-07-29T16:48:29.668Z,23.69
2022-07-29T16:50:59.693Z,23.80
2022-07-29T16:53:30.206Z,23.81
2022-07-29T16:56:01.663Z,23.89
2022-07-29T16:58:32.594Z,24.06
2022-07-29T17:01:01.827Z,24.16
2022-07-29T17:03:30.877Z,24.16
2022-07-29T17:05:59.924Z,24.23
2022-07-29T17:08:53.049Z,24.36
2022-07-29T17:11:23.159Z,24.37
2022-07-29T17:14:19.022Z,24.65
2022-07-29T17:17:01.396Z,24.80
2022-07-29T17:19:39.335Z,24.97
2022-07-29T17:22:15.514Z,25.13
2022-07-29T17:24:53.809Z,25.26
2022-07-29T17:27:22.935Z,25.23
2022-07-29T17:29:52.175Z,25.40
2022-07-29T17:32:21.249Z,25.60
2022-07-29T17:34:50.599Z,25.68
2022-07-29T17:37:20.048Z,25.75
2022-07-29T17:39:49.683Z,25.88
2022-07-29T17:42:18.769Z,26.19
2022-07-29T17:44:48.235Z,26.29
2022-07-29T17:47:17.391Z,26.18
2022-07-29T17:49:46.866Z,26.18
2022-07-29T17:52:17.189Z,26.35
2022-07-29T17:54:46.519Z,26.55
2022-07-29T17:57:15.566Z,26.50
2022-07-29T17:59:44.719Z,26.65
2022-07-29T18:02:15.193Z,26.80
2022-07-29T18:04:44.486Z,26.91
2022-07-29T18:07:13.667Z,26.87
2022-07-29T18:09:42.730Z,27.12
2022-07-29T18:12:11.747Z,27.12
2022-07-29T18:14:40.967Z,27.23
2022-07-29T18:17:10.045Z,27.18
2022-07-29T18:19:39.207Z,27.37
2022-07-29T18:22:09.230Z,27.63
2022-07-29T18:24:38.297Z,27.59
2022-07-29T18:27:07.607Z,27.86
2022-07-29T18:29:36.937Z,28.02
2022-07-29T18:32:06.643Z,28.22
2022-07-29T18:34:35.796Z,28.18
2022-07-29T18:37:04.949Z,28.15
2022-07-29T18:39:34.283Z,28.21
2022-07-29T18:42:04.052Z,28.07
2022-07-29T18:44:34.036Z,28.51
2022-07-29T18:47:13.088Z,28.14
2022-07-29T18:49:42.466Z,28.22
2022-07-29T18:52:11.889Z,28.41
2022-07-29T18:54:41.013Z,28.70
2022-07-29T18:57:55.456Z,28.48
2022-07-29T18:59:59.561Z,28.83
2022-07-29T19:02:29.294Z,29.40
2022-07-29T19:04:58.806Z,29.01
2022-07-29T19:07:27.933Z,29.16
2022-07-29T19:09:57.384Z,28.98
2022-07-29T19:12:26.492Z,29.60
2022-07-29T19:14:55.956Z,29.20
2022-07-29T19:17:24.966Z,29.43
2022-07-29T19:19:54.764Z,29.88
2022-07-29T19:22:24.157Z,29.97
2022-07-29T19:24:54.134Z,29.83
2022-07-29T19:27:23.309Z,29.91
2022-07-29T19:29:55.804Z,30.17
2022-07-29T19:32:28.523Z,30.39
2022-07-29T19:35:15.868Z,30.07
2022-07-29T19:37:45.005Z,30.23
2022-07-29T19:40:14.049Z,30.60
2022-07-29T19:42:44.799Z,31.01
2022-07-29T19:45:14.297Z,31.41
2022-07-29T19:47:43.394Z,31.23
2022-07-29T19:50:12.777Z,31.26
2022-07-29T19:52:42.064Z,31.05
2022-07-29T19:55:11.497Z,31.43
2022-07-29T19:57:41.980Z,30.80
2022-07-29T20:00:13.003Z,31.10
2022-07-29T20:02:43.829Z,31.76
2022-07-29T20:05:13.808Z,31.60
2022-07-29T20:07:42.881Z,31.14
2022-07-29T20:10:12.343Z,31.54
2022-07-29T20:12:43.781Z,31.92
2022-07-29T20:15:16.418Z,31.97
2022-07-29T20:17:46.539Z,32.12
2022-07-29T20:20:16.058Z,31.85
2022-07-29T20:22:45.666Z,32.02
2022-07-29T20:25:16.269Z,31.85
2022-07-29T20:27:45.544Z,31.79
2022-07-29T20:30:15.217Z,31.67
2022-07-29T20:32:44.427Z,31.82
2022-07-29T20:35:14.384Z,31.80
2022-07-29T20:37:52.079Z,32.11
2022-07-29T20:40:30.077Z,31.88
2022-07-29T20:42:59.895Z,31.81
2022-07-29T20:45:31.746Z,32.46
2022-07-29T20:48:01.344Z,32.69
2022-07-29T20:50:30.596Z,32.23
2022-07-29T20:53:00.272Z,32.48
2022-07-29T20:55:30.780Z,32.72
2022-07-29T20:58:00.252Z,32.83
2022-07-29T21:00:30.117Z,32.69
2022-07-29T21:02:59.494Z,32.56
2022-07-29T21:05:28.626Z,32.71
2022-07-29T21:08:00.034Z,32.30
2022-07-29T21:10:30.314Z,33.13
2022-07-29T21:12:59.627Z,33.35
2022-07-29T21:15:30.153Z,32.99
2022-07-29T21:18:03.832Z,32.67
2022-07-29T21:20:33.093Z,32.26
2022-07-29T21:23:02.251Z,33.08
2022-07-29T21:25:31.350Z,32.97
2022-07-29T21:28:19.432Z,33.35
2022-07-29T21:30:48.483Z,33.56
2022-07-29T21:33:17.694Z,33.43
2022-07-29T21:36:14.989Z,32.98
2022-07-29T21:38:37.430Z,33.41
2022-07-29T21:41:07.727Z,33.15
2022-07-29T21:43:36.812Z,32.68
2022-07-29T21:46:11.244Z,32.54
2022-07-29T21:48:44.331Z,33.47
2022-07-29T21:51:14.204Z,33.13
2022-07-29T21:53:43.257Z,33.11
2022-07-29T21:56:14.911Z,33.05
2022-07-29T21:58:44.388Z,32.94
2022-07-29T22:01:13.756Z,33.15
2022-07-29T22:03:48.377Z,33.36
2022-07-29T22:06:18.380Z,33.49
2022-07-29T22:08:49.324Z,33.97
2022-07-29T22:11:20.280Z,33.85
2022-07-29T22:13:49.470Z,34.40
2022-07-29T22:16:18.641Z,34.71
2022-07-29T22:18:50.687Z,34.54
2022-07-29T22:21:20.585Z,34.37
2022-07-29T22:23:49.644Z,33.86
2022-07-29T22:26:18.767Z,33.51
2022-07-29T22:28:47.940Z,33.95
2022-07-29T22:31:21.600Z,34.13
2022-07-29T22:33:54.090Z,34.35
2022-07-29T22:36:24.961Z,34.26
2022-07-29T22:38:54.177Z,34.39
2022-07-29T22:41:23.241Z,34.90
2022-07-29T22:43:52.920Z,35.25
2022-07-29T22:46:23.069Z,35.41
2022-07-29T22:48:52.261Z,35.63
2022-07-29T22:51:21.288Z,35.45
2022-07-29T22:53:51.158Z,35.22
2022-07-29T22:56:21.606Z,34.89
2022-07-29T22:58:51.196Z,34.79
2022-07-29T23:01:38.048Z,34.58
2022-07-29T23:04:08.282Z,34.02
2022-07-29T23:06:37.825Z,34.36
2022-07-29T23:09:07.133Z,35.08
2022-07-29T23:11:36.227Z,35.36
2022-07-29T23:14:05.342Z,34.62
2022-07-29T23:16:38.830Z,35.00
2022-07-29T23:19:08.124Z,35.33
2022-07-29T23:21:37.156Z,34.58
2022-07-29T23:24:06.427Z,34.04
2022-07-29T23:26:37.590Z,34.29
2022-07-29T23:29:06.684Z,34.12
2022-07-29T23:31:36.793Z,34.08
2022-07-29T23:34:11.009Z,35.05
2022-07-29T23:36:40.517Z,35.32
2022-07-29T23:39:13.963Z,35.90
2022-07-29T23:41:43.587Z,36.44
2022-07-29T23:44:13.146Z,36.53
2022-07-29T23:46:42.268Z,35.15
2022-07-29T23:49:11.521Z,35.80
2022-07-29T23:51:40.577Z,35.67
2022-07-29T23:54:09.749Z,35.79
2022-07-29T23:56:39.237Z,35.82
2022-07-29T23:59:08.753Z,35.29
